sensor_id;sensor_type;location;lat;lon;timestamp;pressure;altitude;pressure_sealevel;temperature;humidity
84649;BME280;76539;52.392;16.888;2024-03-17T00:00:09;100934.0;;;4.56;78.69
84649;BME280;76539;52.392;16.888;2024-03-17T00:15:09;100946.0;;;4.4;78.0
84649;BME280;76539;52.392;16.888;2024-03-17T00:30:09;100959.0;;;4.35;76.47
84649;BME280;76539;52.392;16.888;2024-03-17T00:45:09;100966.0;;;4.31;78.28
84649;BME280;76539;52.392;16.888;2024-03-17T01:00:09;100976.0;;;4.27;78.38
84649;BME280;76539;52.392;16.888;2024-03-17T01:15:09;100975.0;;;4.37;75.17
84649;BME280;76539;52.392;16.888;2024-03-17T01:30:09;100972.0;;;4.5;72.74
84649;BME280;76539;52.392;16.888;2024-03-17T01:45:09;100963.0;;;4.5;71.29
84649;BME280;76539;52.392;16.888;2024-03-17T02:00:09;100967.0;;;4.4;74.03
84649;BME280;76539;52.392;16.888;2024-03-17T02:15:09;100964.0;;;4.2;76.34
84649;BME280;76539;52.392;16.888;2024-03-17T02:30:09;100970.0;;;4.19;75.93
84649;BME280;76539;52.392;16.888;2024-03-17T02:45:09;100960.0;;;4.32;71.66
84649;BME280;76539;52.392;16.888;2024-03-17T03:00:09;100934.0;;;4.19;73.54
84649;BME280;76539;52.392;16.888;2024-03-17T03:15:09;100942.0;;;4.06;72.9
84649;BME280;76539;52.392;16.888;2024-03-17T03:30:09;100947.0;;;4.06;71.69
84649;BME280;76539;52.392;16.888;2024-03-17T03:45:09;100944.0;;;4.07;71.44
84649;BME280;76539;52.392;16.888;2024-03-17T04:00:09;100942.0;;;4.13;70.46
84649;BME280;76539;52.392;16.888;2024-03-17T04:15:09;100945.0;;;4.22;70.09
84649;BME280;76539;52.392;16.888;2024-03-17T04:30:09;100942.0;;;4.26;69.85
84649;BME280;76539;52.392;16.888;2024-03-17T04:45:09;100945.0;;;4.29;69.81
84649;BME280;76539;52.392;16.888;2024-03-17T05:00:09;100956.0;;;4.3;69.65
84649;BME280;76539;52.392;16.888;2024-03-17T05:15:09;100972.0;;;4.35;69.59
84649;BME280;76539;52.392;16.888;2024-03-17T05:30:09;100971.0;;;4.4;69.35
84649;BME280;76539;52.392;16.888;2024-03-17T05:45:09;100996.0;;;4.45;69.15
84649;BME280;76539;52.392;16.888;2024-03-17T06:00:09;101021.0;;;4.56;69.23
84649;BME280;76539;52.392;16.888;2024-03-17T06:15:09;101035.0;;;4.64;69.61
84649;BME280;76539;52.392;16.888;2024-03-17T06:30:09;101039.0;;;4.79;69.55
84649;BME280;76539;52.392;16.888;2024-03-17T06:45:09;101050.0;;;4.98;69.45
84649;BME280;76539;52.392;16.888;2024-03-17T07:00:09;101058.0;;;5.31;68.79
84649;BME280;76539;52.392;16.888;2024-03-17T07:15:09;101057.0;;;5.58;67.37
84649;BME280;76539;52.392;16.888;2024-03-17T07:30:09;101093.0;;;4.73;74.17
84649;BME280;76539;52.392;16.888;2024-03-17T07:45:09;101123.0;;;4.83;73.28
84649;BME280;76539;52.392;16.888;2024-03-17T08:00:09;101120.0;;;6.36;65.27
84649;BME280;76539;52.392;16.888;2024-03-17T08:15:10;101117.0;;;6.4;58.75
84649;BME280;76539;52.392;16.888;2024-03-17T08:30:10;101112.0;;;6.96;55.21
84649;BME280;76539;52.392;16.888;2024-03-17T08:45:10;101129.0;;;6.45;55.48
84649;BME280;76539;52.392;16.888;2024-03-17T09:00:09;101145.0;;;6.26;57.18
84649;BME280;76539;52.392;16.888;2024-03-17T09:15:09;101166.0;;;5.42;60.55
84649;BME280;76539;52.392;16.888;2024-03-17T09:30:09;101180.0;;;6.2;57.81
84649;BME280;76539;52.392;16.888;2024-03-17T09:45:09;101181.0;;;5.8;57.75
84649;BME280;76539;52.392;16.888;2024-03-17T10:00:09;101190.0;;;5.8;57.4
84649;BME280;76539;52.392;16.888;2024-03-17T10:15:09;101196.0;;;5.99;54.58
84649;BME280;76539;52.392;16.888;2024-03-17T10:30:09;101196.0;;;6.02;56.06
84649;BME280;76539;52.392;16.888;2024-03-17T10:45:09;101214.0;;;5.16;57.77
84649;BME280;76539;52.392;16.888;2024-03-17T11:00:09;101214.0;;;5.47;58.7
84649;BME280;76539;52.392;16.888;2024-03-17T11:15:09;101218.0;;;5.62;58.47
84649;BME280;76539;52.392;16.888;2024-03-17T11:40:09;101217.0;;;5.47;59.08
84649;BME280;76539;52.392;16.888;2024-03-17T11:55:09;101225.0;;;5.11;63.42
84649;BME280;76539;52.392;16.888;2024-03-17T12:10:09;101213.0;;;5.3;60.2
84649;BME280;76539;52.392;16.888;2024-03-17T12:25:09;101232.0;;;4.99;60.65
84649;BME280;76539;52.392;16.888;2024-03-17T12:40:09;101234.0;;;4.93;62.68
84649;BME280;76539;52.392;16.888;2024-03-17T12:55:09;101243.0;;;4.83;64.3
84649;BME280;76539;52.392;16.888;2024-03-17T13:10:09;101236.0;;;5.0;61.56
84649;BME280;76539;52.392;16.888;2024-03-17T13:25:09;101242.0;;;4.86;63.08
84649;BME280;76539;52.392;16.888;2024-03-17T13:40:09;101242.0;;;5.02;61.83
84649;BME280;76539;52.392;16.888;2024-03-17T13:55:09;101247.0;;;5.01;57.56
84649;BME280;76539;52.392;16.888;2024-03-17T14:10:09;101248.0;;;4.87;58.63
84649;BME280;76539;52.392;16.888;2024-03-17T14:25:09;101267.0;;;4.6;60.75
84649;BME280;76539;52.392;16.888;2024-03-17T14:40:09;101260.0;;;4.57;61.01
84649;BME280;76539;52.392;16.888;2024-03-17T14:55:09;101258.0;;;4.65;57.64
84649;BME280;76539;52.392;16.888;2024-03-17T15:10:09;101269.0;;;4.66;57.29
84649;BME280;76539;52.392;16.888;2024-03-17T15:25:09;101280.0;;;4.5;58.75
84649;BME280;76539;52.392;16.888;2024-03-17T15:40:09;101272.0;;;4.35;58.55
84649;BME280;76539;52.392;16.888;2024-03-17T15:55:09;101282.0;;;4.24;59.16
84649;BME280;76539;52.392;16.888;2024-03-17T16:10:10;101296.0;;;4.18;60.77
84649;BME280;76539;52.392;16.888;2024-03-17T16:25:10;101294.0;;;4.07;62.04
84649;BME280;76539;52.392;16.888;2024-03-17T16:40:10;101295.0;;;3.95;62.23
84649;BME280;76539;52.392;16.888;2024-03-17T16:55:09;101313.0;;;3.73;62.8
84649;BME280;76539;52.392;16.888;2024-03-17T17:15:09;101325.0;;;3.71;63.46
84649;BME280;76539;52.392;16.888;2024-03-17T17:30:09;101322.0;;;3.46;64.86
84649;BME280;76539;52.392;16.888;2024-03-17T17:45:09;101334.0;;;3.31;65.38
84649;BME280;76539;52.392;16.888;2024-03-17T18:00:09;101333.0;;;3.28;65.88
84649;BME280;76539;52.392;16.888;2024-03-17T18:15:09;101333.0;;;3.2;66.3
84649;BME280;76539;52.392;16.888;2024-03-17T18:30:09;101332.0;;;3.07;65.57
84649;BME280;76539;52.392;16.888;2024-03-17T18:45:09;101342.0;;;3.01;65.32
84649;BME280;76539;52.392;16.888;2024-03-17T19:00:09;101348.0;;;2.93;64.47
84649;BME280;76539;52.392;16.888;2024-03-17T19:15:09;101358.0;;;2.88;65.72
84649;BME280;76539;52.392;16.888;2024-03-17T19:30:09;101360.0;;;2.7;66.92
84649;BME280;76539;52.392;16.888;2024-03-17T19:45:10;101359.0;;;2.54;68.1
84649;BME280;76539;52.392;16.888;2024-03-17T20:00:10;101356.0;;;2.44;68.31
84649;BME280;76539;52.392;16.888;2024-03-17T20:15:10;101349.0;;;2.36;67.49
84649;BME280;76539;52.392;16.888;2024-03-17T20:30:09;101345.0;;;2.3;67.17
84649;BME280;76539;52.392;16.888;2024-03-17T20:45:09;101345.0;;;2.18;66.63
84649;BME280;76539;52.392;16.888;2024-03-17T21:00:09;101350.0;;;2.15;67.26
84649;BME280;76539;52.392;16.888;2024-03-17T21:15:09;101350.0;;;1.93;66.09
84649;BME280;76539;52.392;16.888;2024-03-17T21:30:09;101346.0;;;1.8;65.84
84649;BME280;76539;52.392;16.888;2024-03-17T21:45:09;101342.0;;;1.71;65.57
84649;BME280;76539;52.392;16.888;2024-03-17T22:00:09;101333.0;;;1.71;65.61
84649;BME280;76539;52.392;16.888;2024-03-17T22:15:09;101317.0;;;1.51;66.27
84649;BME280;76539;52.392;16.888;2024-03-17T22:30:09;101324.0;;;1.12;67.76
84649;BME280;76539;52.392;16.888;2024-03-17T22:45:09;101328.0;;;0.95;69.39
84649;BME280;76539;52.392;16.888;2024-03-17T23:00:09;101317.0;;;0.9599999;70.59
84649;BME280;76539;52.392;16.888;2024-03-17T23:15:09;101307.0;;;0.9700001;70.65
84649;BME280;76539;52.392;16.888;2024-03-17T23:30:09;101296.0;;;0.91;70.79
84649;BME280;76539;52.392;16.888;2024-03-17T23:45:09;101290.0;;;0.63;71.14
